createdAt,value
2016-05-11T06:11:03.783Z,1000.6
2016-05-11T06:11:13.033Z,1000.6
2016-05-11T06:11:23.048Z,1000.5
2016-05-11T06:11:33.064Z,1000.5
2016-05-11T06:11:43.082Z,1000.5
2016-05-11T06:11:52.910Z,1000.5
2016-05-11T06:12:03.066Z,1000.5
2016-05-11T06:12:13.082Z,1000.5
2016-05-11T06:12:23.082Z,1000.5
2016-05-11T06:12:32.925Z,1000.5
2016-05-11T06:12:43.117Z,1000.5
2016-05-11T06:12:52.945Z,1000.5
2016-05-11T06:13:02.961Z,1000.5
2016-05-11T06:13:13.148Z,1000.5
2016-05-11T06:13:23.117Z,1000.5
2016-05-11T06:13:33.195Z,1000.5
2016-05-11T06:13:43.213Z,1000.4
2016-05-11T06:14:02.010Z,1000.5
2016-05-11T06:14:12.010Z,1000.5
2016-05-11T06:14:21.650Z,1000.5
2016-05-11T06:14:32.010Z,1000.5
2016-05-11T06:14:42.200Z,1000.5
2016-05-11T06:14:52.372Z,1000.5
2016-05-11T06:15:01.872Z,1000.5
2016-05-11T06:15:11.825Z,1000.4
2016-05-11T06:15:22.138Z,1000.5
2016-05-11T06:15:32.059Z,1000.4
2016-05-11T06:15:42.327Z,1000.5
2016-05-11T06:15:52.624Z,1000.5
2016-05-11T06:16:02.499Z,1000.4
2016-05-11T06:16:12.015Z,1000.4
2016-05-11T06:16:21.968Z,1000.5
2016-05-11T06:16:32.218Z,1000.4
2016-05-11T06:16:42.330Z,1000.4
2016-05-11T06:16:52.361Z,1000.5
2016-05-11T06:17:02.143Z,1000.4
2016-05-11T06:17:11.893Z,1000.5
2016-05-11T06:17:21.799Z,1000.5
2016-05-11T06:17:31.986Z,1000.4
2016-05-11T06:17:42.255Z,1000.5
2016-05-11T06:17:52.083Z,1000.5
2016-05-11T06:18:02.052Z,1000.5
2016-05-11T06:18:12.021Z,1000.4
2016-05-11T06:18:22.302Z,1000.4
2016-05-11T06:18:32.146Z,1000.5
2016-05-11T06:18:42.023Z,1000.5
2016-05-11T06:18:52.226Z,1000.5
2016-05-11T06:19:33.288Z,1000.5
2016-05-11T06:19:45.183Z,1000.5
2016-05-11T06:19:57.698Z,1000.5
2016-05-11T06:20:05.105Z,1000.5
2016-05-11T06:20:29.902Z,1000.5
2016-05-11T06:20:39.559Z,1000.5
2016-05-11T06:20:49.559Z,1000.5
2016-05-11T06:21:02.903Z,1000.5
2016-05-11T06:21:22.215Z,1000.6
2016-05-11T06:21:35.968Z,1000.5
2016-05-11T06:22:01.437Z,1000.4
2016-05-11T06:22:11.109Z,1000.4
2016-05-11T06:22:20.437Z,1000.5
2016-05-11T06:22:37.691Z,1000.4
2016-05-11T06:22:45.488Z,1000.4
2016-05-11T06:22:56.503Z,1000.5
2016-05-11T06:23:06.050Z,1000.4
2016-05-11T06:23:22.238Z,1000.5
2016-05-11T06:23:31.675Z,1000.4
2016-05-11T06:23:50.552Z,1000.5
2016-05-11T06:24:05.537Z,1000.5
2016-05-11T06:24:18.349Z,1000.4
2016-05-11T06:24:38.054Z,1000.5
2016-05-11T06:24:50.054Z,1000.5
2016-05-11T06:24:57.773Z,1000.5
2016-05-11T06:25:10.085Z,1000.5
2016-05-11T06:25:18.679Z,1000.4
2016-05-11T06:25:28.867Z,1000.5
2016-05-11T06:25:45.010Z,1000.4
2016-05-11T06:25:50.276Z,1000.4
2016-05-11T06:26:04.807Z,1000.4
2016-05-11T06:26:13.292Z,1000.5
2016-05-11T06:26:21.370Z,1000.5
2016-05-11T06:26:31.026Z,1000.5
2016-05-11T06:26:39.935Z,1000.5
2016-05-11T06:26:56.591Z,1000.5
2016-05-11T06:28:36.813Z,1000.5
2016-05-11T06:28:42.504Z,1000.5
2016-05-11T06:28:52.644Z,1000.5
2016-05-11T06:29:04.707Z,1000.5
2016-05-11T06:29:14.660Z,1000.5
2016-05-11T06:29:22.676Z,1000.5
2016-05-11T06:29:32.519Z,1000.5
2016-05-11T06:29:42.693Z,1000.5
2016-05-11T06:29:52.693Z,1000.5
2016-05-11T06:30:02.693Z,1000.5
2016-05-11T06:30:12.553Z,1000.5
2016-05-11T06:30:22.787Z,1000.5
2016-05-11T06:30:32.959Z,1000.5
2016-05-11T06:30:42.759Z,1000.5
2016-05-11T06:30:52.915Z,1000.5
2016-05-11T06:31:04.040Z,1000.5
2016-05-11T06:31:12.727Z,1000.5
2016-05-11T06:31:22.759Z,1000.5
2016-05-11T06:31:32.743Z,1000.5
2016-05-11T06:31:42.776Z,1000.5
2016-05-11T06:31:52.604Z,1000.5
2016-05-11T06:32:02.761Z,1000.5
2016-05-11T06:32:12.620Z,1000.5
2016-05-11T06:32:22.776Z,1000.5
2016-05-11T06:32:48.577Z,1000.5
2016-05-11T06:32:58.718Z,1000.5
2016-05-11T06:33:08.733Z,1000.5
2016-05-11T06:33:18.718Z,1000.5
2016-05-11T06:33:28.765Z,1000.5
2016-05-11T06:33:38.735Z,1000.5
2016-05-11T06:33:48.579Z,1000.4
2016-05-11T06:33:58.735Z,1000.5
2016-05-11T06:34:08.751Z,1000.5
2016-05-11T06:34:18.751Z,1000.5
2016-05-11T06:34:28.610Z,1000.5
2016-05-11T06:34:38.613Z,1000.5
2016-05-11T06:34:48.770Z,1000.5
2016-05-11T06:34:58.770Z,1000.5
2016-05-11T06:35:08.785Z,1000.4
2016-05-11T06:35:18.785Z,1000.5
2016-05-11T06:35:28.629Z,1000.5
2016-05-11T06:35:38.663Z,1000.5
2016-05-11T06:35:48.804Z,1000.5
2016-05-11T06:35:58.648Z,1000.5
2016-05-11T06:36:08.679Z,1000.5
2016-05-11T06:36:18.679Z,1000.5
2016-05-11T06:36:28.820Z,1000.5
2016-05-11T06:36:38.822Z,1000.5
2016-05-11T06:36:48.837Z,1000.5
2016-05-11T06:57:01.157Z,1000.7
2016-05-11T06:57:11.313Z,1000.6
2016-05-11T06:57:21.172Z,1000.7
2016-05-11T06:57:31.329Z,1000.7
2016-05-11T06:57:41.346Z,1000.7
2016-05-11T06:57:51.346Z,1000.7
2016-05-11T06:58:01.346Z,1000.7
2016-05-11T06:58:11.190Z,1000.6
2016-05-11T06:58:35.237Z,1000.7
2016-05-11T06:59:21.271Z,1000.7
2016-05-11T06:59:31.240Z,1000.7
2016-05-11T06:59:40.930Z,1000.7
2016-05-11T06:59:51.243Z,1000.7
2016-05-11T07:00:01.243Z,1000.7
2016-05-11T07:00:11.477Z,1000.7
2016-05-11T07:00:21.212Z,1000.7
2016-05-11T07:00:31.680Z,1000.7
2016-05-11T07:00:43.230Z,1000.6
2016-05-11T07:00:50.996Z,1000.7
2016-05-11T07:01:06.949Z,1000.7
2016-05-11T07:01:11.777Z,1000.7
2016-05-11T07:01:21.590Z,1000.7
2016-05-11T07:01:31.605Z,1000.7
2016-05-11T07:01:45.124Z,1000.7
2016-05-11T07:01:51.593Z,1000.7
2016-05-11T07:02:01.296Z,1000.7
2016-05-11T07:02:11.765Z,1000.7
2016-05-11T07:06:18.978Z,1000.7
2016-05-11T08:01:11.423Z,1000.8
2016-05-11T08:01:21.501Z,1000.8
2016-05-11T08:01:31.532Z,1000.9
2016-05-11T08:01:41.548Z,1000.9
2016-05-11T08:01:51.441Z,1000.9
2016-05-11T08:02:01.457Z,1000.9
2016-05-11T08:02:11.472Z,1000.8
2016-05-11T14:16:44.220Z,997.9
2016-05-11T14:16:54.220Z,997.9
2016-05-11T14:17:14.238Z,997.9
2016-05-11T14:17:24.238Z,997.8
2016-05-11T14:17:34.238Z,997.9
2016-05-11T14:17:44.129Z,997.9
2016-05-11T14:17:54.113Z,997.9
2016-05-11T14:18:04.256Z,997.8
2016-05-11T14:18:14.271Z,997.9
2016-05-11T14:18:24.271Z,997.9
2016-05-11T14:18:34.271Z,997.9
2016-05-11T14:18:44.287Z,997.8
2016-05-11T14:18:53.974Z,997.9
2016-05-11T14:19:04.290Z,997.8
2016-05-11T14:19:14.306Z,997.9
2016-05-11T14:19:24.290Z,997.8
2016-05-11T14:19:34.165Z,997.8
2016-05-11T14:19:44.165Z,997.8
2016-05-11T14:19:54.306Z,997.8
2016-05-11T14:20:04.324Z,997.8
2016-05-11T14:20:14.324Z,997.8
2016-05-11T14:20:24.027Z,997.7
2016-05-11T14:20:34.043Z,997.8
2016-05-11T14:20:44.355Z,997.8
2016-05-11T14:20:54.355Z,997.8
2016-05-11T14:21:04.358Z,997.8
2016-05-11T14:21:14.358Z,997.8
2016-05-11T14:21:24.218Z,997.8
2016-05-11T14:21:34.374Z,997.8
2016-05-11T14:21:44.390Z,997.8
2016-05-11T14:21:54.233Z,997.7
2016-05-11T14:22:04.393Z,997.8
2016-05-11T14:22:14.252Z,997.8
2016-05-11T14:22:24.408Z,997.8
2016-05-11T14:22:34.408Z,997.8
2016-05-11T14:22:44.252Z,997.8
2016-05-11T14:22:54.268Z,997.8
2016-05-11T14:23:04.426Z,997.8
2016-05-11T14:23:14.317Z,997.8
2016-05-11T14:23:24.473Z,997.8
2016-05-11T14:23:34.457Z,997.8
2016-05-11T14:23:44.395Z,997.8
2016-05-11T14:23:54.317Z,997.7
2016-05-11T14:24:04.460Z,997.8
2016-05-11T14:24:14.320Z,997.7
2016-05-11T14:24:24.382Z,997.8
2016-05-11T14:24:34.476Z,997.8
2016-05-11T14:24:44.320Z,997.8
2016-05-11T14:24:54.491Z,997.8
2016-05-11T14:25:04.353Z,997.8
2016-05-11T14:25:14.337Z,997.8
2016-05-11T14:25:24.353Z,997.8
2016-05-11T14:25:34.353Z,997.8
2016-05-11T14:25:44.353Z,997.8
2016-05-11T14:25:54.368Z,997.7
2016-05-11T14:26:04.528Z,997.8
2016-05-11T14:26:14.528Z,997.8
2016-05-11T14:26:24.559Z,997.8
2016-05-11T14:26:34.387Z,997.8
2016-05-11T14:26:44.543Z,997.8
2016-05-11T14:26:54.559Z,998.1
2016-05-11T14:27:04.421Z,998.1
2016-05-11T14:27:14.562Z,998.2
2016-05-11T14:27:24.593Z,998.1
2016-05-11T14:27:34.578Z,998.1
2016-05-11T14:27:44.578Z,998
2016-05-11T14:27:54.437Z,998.1
2016-05-11T14:28:04.596Z,998.1
2016-05-11T14:28:14.456Z,998.1
2016-05-11T14:28:24.440Z,998.1
2016-05-11T14:28:34.627Z,998.1
2016-05-11T14:28:44.612Z,998.1
2016-05-11T14:28:54.471Z,998.1
2016-05-11T14:29:04.629Z,998.1
2016-05-11T14:29:14.489Z,998
2016-05-11T14:29:24.348Z,998.1
2016-05-11T14:29:34.645Z,998.1
2016-05-11T14:29:44.645Z,998.1
2016-05-11T14:29:54.661Z,998.1
2016-05-11T14:30:04.664Z,998.1
2016-05-11T14:30:14.679Z,998.1
2016-05-11T14:30:24.711Z,998.1
2016-05-11T14:30:34.695Z,998.2
2016-05-11T14:30:44.836Z,998.2
2016-05-11T14:30:54.695Z,998.1
2016-05-11T14:31:04.573Z,998.1
2016-05-11T14:31:15.151Z,998.1
2016-05-11T14:31:24.729Z,998.1
2016-05-11T14:31:35.323Z,998.1
2016-05-11T14:31:44.823Z,998.2
2016-05-11T14:31:54.589Z,998.1
2016-05-11T14:32:04.622Z,998.1
2016-05-11T14:32:14.591Z,998.1
2016-05-11T14:32:24.747Z,998.1
2016-05-11T14:32:34.747Z,998.2
2016-05-11T14:32:44.747Z,998.1
2016-05-11T14:32:54.762Z,998.1
2016-05-11T14:33:04.766Z,998.1
2016-05-11T14:33:14.798Z,998.1
2016-05-11T14:33:24.485Z,998
2016-05-11T14:33:34.798Z,998.2
2016-05-11T14:33:44.798Z,998.1
2016-05-11T14:33:54.798Z,998.1
2016-05-11T14:34:04.800Z,998.1
2016-05-11T14:34:14.518Z,998.1
2016-05-11T14:34:24.815Z,998.1
2016-05-11T14:34:34.831Z,998.1
2016-05-11T14:34:44.831Z,998
2016-05-11T14:34:54.847Z,998.1
2016-05-11T14:35:04.833Z,998
2016-05-11T14:35:14.849Z,998
2016-05-11T14:35:24.708Z,998.1
2016-05-11T14:35:34.708Z,998.1
2016-05-11T14:35:44.864Z,998
2016-05-11T14:35:54.880Z,998.1
2016-05-11T14:36:04.883Z,998
2016-05-11T14:36:14.898Z,998
2016-05-11T14:36:24.898Z,998
2016-05-11T14:36:34.898Z,998
2016-05-11T14:36:44.758Z,998
2016-05-11T14:36:54.914Z,998.1
2016-05-11T14:37:04.761Z,998
2016-05-11T14:37:14.917Z,998.1
2016-05-11T14:37:24.886Z,998.1
2016-05-11T14:37:34.792Z,998
2016-05-11T14:37:44.948Z,997.9
2016-05-11T14:37:54.948Z,997.9
2016-05-11T14:38:04.794Z,997.9
2016-05-11T14:38:14.950Z,997.9
2016-05-11T14:38:24.810Z,998
2016-05-11T14:38:34.810Z,998
2016-05-11T14:38:45.966Z,997.9
2016-05-11T14:38:54.982Z,997.9
2016-05-11T14:39:05.001Z,998
2016-05-11T14:39:15.001Z,997.9
2016-05-11T14:39:24.861Z,998
2016-05-11T14:39:35.001Z,998
2016-05-11T14:39:44.876Z,998
2016-05-11T14:39:55.032Z,998
2016-05-11T14:40:05.035Z,998
2016-05-11T14:40:15.035Z,998
2016-05-11T14:40:25.067Z,998.1
2016-05-11T14:40:35.067Z,998.1
2016-05-11T14:40:44.770Z,998.1
2016-05-11T14:40:55.051Z,998.1
2016-05-11T14:41:05.068Z,998.1
2016-05-11T14:41:15.068Z,998.1
2016-05-11T14:41:25.083Z,998.1
2016-05-11T14:41:35.083Z,998.1
2016-05-11T14:41:45.083Z,998.1
2016-05-11T14:41:55.099Z,998.1
2016-05-11T14:42:04.961Z,998.1
2016-05-11T14:42:14.946Z,998
2016-05-11T14:42:25.118Z,998
2016-05-11T14:42:35.180Z,998.1
2016-05-11T14:42:44.977Z,998.1
2016-05-11T14:42:55.118Z,998.1
2016-05-11T14:43:05.152Z,998
2016-05-11T14:43:14.996Z,998.1
2016-05-11T14:43:25.167Z,998
2016-05-11T14:43:35.167Z,998
2016-05-11T14:43:45.199Z,998.1
2016-05-11T14:43:55.011Z,998.1
2016-05-11T14:44:05.186Z,998.1
2016-05-11T14:44:15.030Z,998.1
2016-05-11T14:44:25.327Z,998.1
2016-05-11T14:44:35.202Z,998.1
2016-05-11T14:44:45.202Z,998.1
2016-05-11T14:44:55.202Z,998.1
2016-05-11T14:45:05.219Z,998.1
2016-05-11T14:45:15.235Z,998.1
2016-05-11T14:45:25.219Z,998.1
2016-05-11T14:45:35.235Z,998.1
2016-05-11T14:45:45.282Z,998.1
2016-05-11T14:45:56.032Z,998.1
2016-05-11T14:46:05.316Z,998.1
2016-05-11T14:46:15.254Z,998.1
2016-05-11T14:46:24.800Z,998.1
2016-05-11T14:46:35.379Z,998.1
2016-05-11T14:46:45.269Z,998
2016-05-11T14:46:55.269Z,998.1
2016-05-11T14:47:05.288Z,998.1
2016-05-11T14:47:15.288Z,998.1
2016-05-11T14:47:25.303Z,998.1
2016-05-11T14:47:35.303Z,998.1
2016-05-11T14:47:45.319Z,998
2016-05-11T14:47:55.335Z,998
2016-05-11T14:48:05.338Z,998.1
2016-05-11T14:48:15.369Z,998
2016-05-11T14:48:25.197Z,998
2016-05-11T14:48:35.338Z,998.1
2016-05-11T14:48:45.197Z,998.1
2016-05-11T14:48:55.369Z,998.1
2016-05-11T14:49:05.355Z,998.1
2016-05-11T14:49:15.371Z,998.1
2016-05-11T14:49:25.371Z,998.1
2016-05-11T14:49:35.387Z,998.1
2016-05-11T14:49:47.949Z,998.1
2016-05-11T14:49:55.246Z,998.1
2016-05-11T14:50:05.280Z,998.1
2016-05-11T14:50:15.390Z,998.1
2016-05-11T14:50:25.265Z,998
2016-05-11T14:50:35.421Z,998.1
2016-05-11T14:50:45.265Z,998.1
2016-05-11T14:50:55.436Z,998.1
2016-05-11T14:51:05.438Z,998.1
2016-05-11T14:51:15.438Z,998.1
2016-05-11T14:51:25.454Z,998.2
2016-05-11T14:51:35.298Z,998.1
2016-05-11T14:51:45.017Z,998.1
2016-05-11T14:51:55.501Z,998.1
2016-05-11T14:52:05.488Z,998.1
2016-05-11T14:52:15.504Z,998
2016-05-11T14:52:27.176Z,998.1
2016-05-11T14:52:35.504Z,998
2016-05-11T14:52:45.348Z,998.1
2016-05-11T14:52:55.363Z,998
2016-05-11T14:53:05.523Z,998
2016-05-11T14:53:15.523Z,998
2016-05-11T14:53:25.538Z,998
2016-05-11T14:53:35.523Z,998
2016-05-11T14:53:45.538Z,998
2016-05-11T14:53:55.538Z,998
2016-05-11T14:54:05.572Z,998
2016-05-11T14:54:15.416Z,998
2016-05-11T14:54:25.572Z,998
2016-05-11T14:54:35.572Z,998
2016-05-11T14:54:45.572Z,998
2016-05-11T14:54:55.588Z,998
2016-05-11T14:55:05.434Z,998
2016-05-11T14:55:15.590Z,998
2016-05-11T14:55:25.621Z,998
2016-05-11T14:55:35.621Z,998
2016-05-11T14:55:45.621Z,998
2016-05-11T14:55:55.621Z,998
2016-05-11T14:56:05.640Z,998
2016-05-11T14:56:15.484Z,998
2016-05-11T14:56:25.499Z,998
2016-05-11T14:56:35.687Z,998
2016-05-11T14:56:45.656Z,998
2016-05-11T14:56:55.671Z,998
2016-05-11T14:57:05.659Z,998
2016-05-11T14:57:15.690Z,998
2016-05-11T14:57:25.534Z,998
2016-05-11T14:57:35.690Z,997.9
2016-05-11T14:57:45.705Z,998
2016-05-11T14:57:55.705Z,997.9
2016-05-11T14:58:05.724Z,998
2016-05-11T14:58:15.724Z,997.9
2016-05-11T14:58:25.568Z,997.9
2016-05-11T14:58:35.568Z,997.9
2016-05-11T14:58:45.740Z,997.9
2016-05-11T14:58:55.583Z,997.9
2016-05-11T14:59:05.601Z,997.9
2016-05-11T14:59:15.757Z,997.9
2016-05-11T14:59:25.460Z,997.8
2016-05-11T14:59:35.476Z,997.9
2016-05-11T14:59:45.851Z,998
2016-05-11T14:59:55.773Z,997.9
2016-05-11T15:00:05.792Z,997.9
2016-05-11T15:00:15.651Z,997.9
2016-05-11T15:00:25.635Z,997.9
2016-05-11T15:00:35.979Z,997.9
2016-05-11T15:00:46.151Z,997.9
2016-05-11T15:00:56.198Z,997.9
2016-05-11T15:01:05.826Z,997.9
2016-05-11T15:01:15.763Z,997.9
2016-05-11T15:01:25.716Z,997.8
2016-05-11T15:01:36.420Z,997.8
2016-05-11T15:01:45.841Z,997.9
2016-05-11T15:01:55.873Z,997.9
2016-05-11T15:02:05.859Z,997.9
2016-05-11T15:02:15.859Z,997.9
2016-05-11T15:02:25.875Z,997.8
2016-05-11T15:02:35.890Z,997.8
2016-05-11T15:02:45.890Z,997.8
2016-05-11T15:02:55.953Z,997.8
2016-05-11T15:03:06.050Z,997.8
2016-05-11T15:03:16.034Z,997.7
2016-05-11T15:03:25.893Z,997.8
2016-05-11T15:03:35.768Z,997.7
2016-05-11T15:03:45.925Z,997.8
2016-05-11T15:03:55.940Z,997.8
2016-05-11T15:04:05.942Z,997.7
2016-05-11T15:04:15.786Z,997.7
2016-05-11T15:04:25.942Z,997.8
2016-05-11T15:04:35.973Z,997.8
2016-05-11T15:04:45.802Z,997.9
2016-05-11T15:04:55.661Z,997.8
2016-05-11T15:05:05.993Z,997.8
2016-05-11T15:05:15.977Z,997.8
2016-05-11T15:05:25.821Z,997.7
2016-05-11T15:05:35.993Z,997.8
2016-05-11T15:05:46.009Z,997.7
2016-05-11T15:05:56.431Z,997.7
2016-05-11T15:06:06.011Z,997.7
2016-05-11T15:06:16.042Z,997.7
2016-05-11T15:06:25.886Z,997.7
2016-05-11T15:06:36.026Z,997.7
2016-05-11T15:06:46.058Z,997.8
2016-05-11T15:06:56.042Z,997.7
2016-05-11T15:07:06.060Z,997.7
2016-05-11T15:07:16.528Z,997.8
2016-05-11T15:07:26.372Z,997.8
2016-05-11T15:07:36.513Z,997.8
2016-05-11T15:07:46.075Z,997.8
2016-05-11T15:07:55.763Z,997.8
2016-05-11T15:08:06.094Z,997.7
2016-05-11T15:08:15.953Z,997.8
2016-05-11T15:08:26.094Z,997.8
2016-05-11T15:08:35.953Z,997.8
2016-05-11T15:08:46.125Z,997.9
2016-05-11T15:08:56.125Z,997.8
2016-05-11T15:09:06.128Z,997.8
2016-05-11T15:09:16.003Z,997.8
2016-05-11T15:09:26.159Z,997.8
2016-05-11T15:09:36.362Z,997.7
2016-05-11T15:09:46.456Z,997.7
2016-05-11T15:09:56.409Z,997.7
2016-05-11T15:10:06.022Z,997.8
2016-05-11T15:10:16.444Z,997.7
2016-05-11T15:10:26.022Z,997.8
2016-05-11T15:10:36.022Z,997.8
2016-05-11T15:10:46.225Z,997.8
2016-05-11T15:10:56.069Z,997.8
2016-05-11T15:11:06.211Z,997.8
2016-05-11T15:11:16.071Z,997.8
2016-05-11T15:11:26.196Z,997.7
2016-05-11T15:11:36.805Z,997.8
2016-05-11T15:11:46.242Z,997.8
2016-05-11T15:11:56.227Z,997.8
2016-05-11T15:12:06.245Z,997.8
2016-05-11T15:12:16.245Z,997.7
2016-05-11T15:12:26.245Z,997.7
2016-05-11T15:12:36.261Z,997.8
2016-05-11T15:12:46.277Z,997.7
2016-05-11T15:12:56.574Z,997.7
2016-05-11T15:13:06.295Z,997.7
2016-05-11T15:13:16.123Z,997.7
2016-05-11T15:13:26.295Z,997.8
2016-05-11T15:13:36.139Z,997.7
2016-05-11T15:13:45.983Z,997.7
2016-05-11T15:13:56.155Z,997.8
2016-05-11T15:14:06.157Z,997.8
2016-05-11T15:14:16.016Z,997.7
2016-05-11T15:14:27.141Z,997.7
2016-05-11T15:14:36.172Z,997.7
2016-05-11T15:14:46.329Z,997.7
2016-05-11T15:14:56.032Z,997.7
2016-05-11T15:15:06.363Z,997.6
2016-05-11T15:15:16.050Z,997.7
2016-05-11T15:15:26.363Z,997.7
2016-05-11T15:15:36.691Z,997.7
2016-05-11T15:15:46.457Z,997.7
2016-05-11T15:15:56.441Z,997.6
2016-05-11T15:16:06.256Z,997.7
2016-05-11T15:16:16.085Z,997.7
2016-05-11T15:16:26.131Z,997.6
2016-05-11T15:16:36.600Z,997.7
2016-05-11T15:16:46.413Z,997.7
2016-05-11T15:16:56.413Z,997.6
2016-05-11T15:17:06.322Z,997.6
2016-05-11T15:17:16.791Z,997.7
2016-05-11T15:17:27.025Z,997.7
2016-05-11T15:17:36.275Z,997.7
2016-05-11T15:17:46.463Z,997.7
2016-05-11T15:17:56.463Z,997.7
2016-05-11T15:18:06.308Z,997.8
2016-05-11T15:18:16.324Z,997.6
2016-05-11T15:18:26.308Z,997.7
2016-05-11T15:18:36.480Z,997.7
2016-05-11T15:18:46.168Z,997.7
2016-05-11T15:18:56.511Z,997.7
2016-05-11T15:19:06.343Z,997.7
2016-05-11T15:19:16.499Z,997.7
2016-05-11T15:19:26.358Z,997.7
2016-05-11T15:19:36.421Z,997.7
2016-05-11T15:19:46.530Z,997.7
2016-05-11T15:19:56.530Z,997.7
2016-05-11T15:20:06.549Z,997.7
2016-05-11T15:20:16.549Z,997.7
2016-05-11T15:20:26.971Z,997.7
2016-05-11T15:20:36.564Z,997.7
2016-05-11T15:20:46.580Z,997.7
2016-05-11T15:20:56.564Z,997.7
2016-05-11T15:21:06.583Z,997.7
2016-05-11T15:21:16.583Z,997.7
2016-05-11T15:21:26.599Z,997.7
2016-05-11T15:21:36.442Z,997.8
2016-05-11T15:21:46.302Z,997.7
2016-05-11T15:21:56.630Z,997.7
2016-05-11T15:22:06.632Z,997.7
2016-05-11T15:22:16.616Z,997.6
2016-05-11T15:22:26.632Z,997.6
2016-05-11T15:22:36.647Z,997.7
2016-05-11T15:22:46.663Z,997.7
2016-05-11T15:22:56.647Z,997.6
2016-05-11T15:23:06.665Z,997.6
2016-05-11T15:23:16.509Z,997.6
2016-05-11T15:23:26.696Z,997.6
2016-05-11T15:23:36.524Z,997.6
2016-05-11T15:23:46.696Z,997.6
2016-05-11T15:23:56.696Z,997.7
2016-05-11T15:24:06.699Z,997.6
2016-05-11T15:24:16.231Z,997.7
2016-05-11T15:24:26.559Z,997.6
2016-05-11T15:24:36.559Z,997.6
2016-05-11T15:24:46.559Z,997.7
2016-05-11T15:24:56.746Z,997.7
2016-05-11T15:25:06.734Z,997.6
2016-05-11T15:25:16.734Z,997.7
2016-05-11T15:25:26.749Z,997.7
2016-05-11T15:25:36.765Z,997.7
2016-05-11T15:25:46.749Z,997.6
2016-05-11T15:25:56.765Z,997.7
2016-05-11T15:26:06.768Z,997.6
2016-05-11T15:26:16.783Z,997.6
2016-05-11T15:26:26.643Z,997.7
2016-05-11T15:26:36.783Z,997.7
2016-05-11T15:26:46.783Z,997.6
2016-05-11T15:26:56.799Z,997.5
2016-05-11T15:27:06.802Z,997.6
2016-05-11T15:27:16.661Z,997.6
2016-05-11T15:27:26.833Z,997.5
2016-05-11T15:27:36.865Z,997.5
2016-05-11T15:27:46.818Z,997.6
2016-05-11T15:27:56.833Z,997.6
2016-05-11T15:28:06.851Z,997.5
2016-05-11T15:28:17.023Z,997.6
2016-05-11T15:28:26.695Z,997.5
2016-05-11T15:28:36.867Z,997.6
2016-05-11T15:28:46.882Z,997.6
2016-05-11T15:28:56.726Z,997.6
2016-05-11T15:29:06.885Z,997.6
2016-05-11T15:29:16.901Z,997.5
2016-05-11T15:29:26.901Z,997.6
2016-05-11T15:29:36.916Z,997.6
2016-05-11T15:29:46.916Z,997.5
2016-05-11T15:29:56.901Z,997.6
2016-05-11T15:30:06.918Z,997.5
2016-05-11T15:30:16.465Z,997.5
2016-05-11T15:30:26.934Z,997.5
2016-05-11T15:30:36.934Z,997.5
2016-05-11T15:30:47.606Z,997.5
2016-05-11T15:30:56.825Z,997.5
2016-05-11T15:31:07.001Z,997.5
2016-05-11T15:31:16.844Z,997.4
2016-05-11T15:31:28.063Z,997.5
2016-05-11T15:31:36.922Z,997.5
2016-05-11T15:31:47.266Z,997.5
2016-05-11T15:31:57.766Z,997.5
2016-05-11T15:32:06.862Z,997.5
2016-05-11T15:32:17.003Z,997.5
2016-05-11T15:32:26.878Z,997.5
2016-05-11T15:32:37.018Z,997.5
2016-05-11T15:32:46.862Z,997.5
2016-05-11T15:32:57.049Z,997.4
2016-05-11T15:33:07.036Z,997.4
2016-05-11T15:33:16.739Z,997.4
2016-05-11T15:33:27.036Z,997.5
2016-05-11T15:33:37.067Z,997.4
2016-05-11T15:33:47.051Z,997.5
2016-05-11T15:33:56.926Z,997.4
2016-05-11T15:34:07.086Z,997.4
2016-05-11T15:34:17.070Z,997.5
2016-05-11T15:34:27.070Z,997.5
2016-05-11T15:34:36.929Z,997.5
2016-05-11T15:34:47.086Z,997.4
2016-05-11T15:34:57.101Z,997.4
2016-05-11T15:35:06.948Z,997.4
2016-05-11T15:35:17.120Z,997.4
2016-05-11T15:35:26.964Z,997.4
2016-05-11T15:35:37.136Z,997.5
2016-05-11T15:35:47.136Z,997.5
2016-05-11T15:35:56.979Z,997.5
2016-05-11T15:36:07.154Z,997.5
2016-05-11T15:36:17.154Z,997.5
2016-05-11T15:36:27.170Z,997.5
2016-05-11T15:36:37.154Z,997.5
2016-05-11T15:36:47.170Z,997.5
2016-05-11T15:36:57.170Z,997.4
2016-05-11T15:37:07.032Z,997.4
2016-05-11T15:37:17.188Z,997.4
2016-05-11T15:37:27.188Z,997.5
2016-05-11T15:37:37.204Z,997.4
2016-05-11T15:37:47.220Z,997.4
2016-05-11T15:37:57.204Z,997.5
2016-05-11T15:38:07.222Z,997.4
2016-05-11T15:38:17.237Z,997.4
2016-05-11T15:38:27.237Z,997.5
2016-05-11T15:38:37.081Z,997.4
2016-05-11T15:38:46.940Z,997.4
2016-05-11T15:38:57.097Z,997.4
2016-05-11T15:39:07.255Z,997.4
2016-05-11T15:39:17.130Z,997.4
2016-05-11T15:39:27.271Z,997.4
2016-05-11T15:39:37.130Z,997.4
2016-05-11T15:39:47.286Z,997.4
2016-05-11T15:39:57.114Z,997.4
2016-05-11T15:40:07.305Z,997.4
2016-05-11T15:40:17.149Z,997.4
2016-05-11T15:40:27.149Z,997.4
2016-05-11T15:40:37.149Z,997.4
2016-05-11T15:40:47.352Z,997.4
2016-05-11T15:40:57.320Z,997.4
2016-05-11T15:41:07.324Z,997.4
2016-05-11T15:41:17.356Z,997.5
2016-05-11T15:41:27.356Z,997.4
2016-05-11T15:41:37.371Z,997.4
2016-05-11T15:41:47.215Z,997.4
2016-05-11T15:41:57.356Z,997.4
2016-05-11T15:42:07.389Z,997.4
2016-05-11T15:42:17.233Z,997.4
2016-05-11T15:42:27.389Z,997.4
2016-05-11T15:42:37.389Z,997.4
2016-05-11T15:42:47.420Z,997.4
2016-05-11T15:42:57.405Z,997.4
2016-05-11T15:43:07.297Z,997.4
2016-05-11T15:43:17.422Z,997.4
2016-05-11T15:43:27.407Z,997.4
2016-05-11T15:43:37.422Z,997.4
2016-05-11T15:43:47.438Z,997.3
2016-05-11T15:43:57.297Z,997.4
2016-05-11T15:44:07.300Z,997.3
2016-05-11T15:44:17.300Z,997.4
2016-05-11T15:44:27.456Z,997.4
2016-05-11T15:44:37.472Z,997.3
2016-05-11T15:44:47.472Z,997.4
2016-05-11T15:44:57.488Z,997.3
2016-05-11T15:45:07.506Z,997.4
2016-05-11T15:45:17.491Z,997.4
2016-05-11T15:45:27.334Z,997.4
2016-05-11T15:45:37.522Z,997.4
2016-05-11T15:45:47.381Z,997.4
2016-05-11T15:45:57.803Z,997.4
2016-05-11T15:46:07.556Z,997.3
2016-05-11T15:46:18.462Z,997.3
2016-05-11T15:46:27.572Z,997.3
2016-05-11T15:46:37.244Z,997.3
2016-05-11T15:46:47.416Z,997.3
2016-05-11T15:46:57.837Z,997.4
2016-05-11T15:47:07.246Z,997.3
2016-05-11T15:47:17.449Z,997.4
2016-05-11T15:47:27.574Z,997.3
2016-05-11T15:47:37.418Z,997.3
2016-05-11T15:47:47.449Z,997.3
2016-05-11T15:47:58.011Z,997.4
2016-05-11T15:48:07.592Z,997.3
2016-05-11T15:48:17.639Z,997.3
2016-05-11T15:48:27.467Z,997.3
2016-05-11T15:48:37.624Z,997.3
2016-05-11T15:48:47.639Z,997.3
2016-05-11T15:48:57.624Z,997.4
2016-05-11T15:49:07.486Z,997.4
2016-05-11T15:49:17.658Z,997.3
2016-05-11T15:49:27.642Z,997.4
2016-05-11T15:49:37.642Z,997.4
2016-05-11T15:49:47.486Z,997.3
2016-05-11T15:49:57.502Z,997.2
2016-05-11T15:50:07.660Z,997.3
2016-05-11T15:50:17.676Z,997.2
2016-05-11T15:50:27.707Z,997.3
2016-05-11T15:50:37.691Z,997.3
2016-05-11T15:50:47.394Z,997.3
2016-05-11T15:50:57.535Z,997.3
2016-05-11T15:51:07.710Z,997.4
2016-05-11T15:51:17.616Z,997.3
2016-05-11T15:51:27.554Z,997.3
2016-05-11T15:51:37.725Z,997.2
2016-05-11T15:51:47.741Z,997.3
2016-05-11T15:51:57.585Z,997.4
2016-05-11T15:52:07.744Z,997.3
2016-05-11T15:52:17.760Z,997.4
2016-05-11T15:52:27.760Z,997.3
2016-05-11T15:52:37.603Z,997.3
2016-05-11T15:52:47.760Z,997.4
2016-05-11T15:52:57.775Z,997.4
2016-05-11T15:53:07.810Z,997.4
2016-05-11T15:53:17.638Z,997.3
2016-05-11T15:53:27.794Z,997.3
2016-05-11T15:53:37.794Z,997.4
2016-05-11T15:53:47.810Z,997.3
2016-05-11T15:53:57.497Z,997.3
2016-05-11T15:54:07.671Z,997.3
2016-05-11T15:54:17.687Z,997.2
2016-05-11T15:54:27.827Z,997.3
2016-05-11T15:54:37.687Z,997.3
2016-05-11T15:54:47.843Z,997.3
2016-05-11T15:54:57.718Z,997.4
2016-05-11T15:55:07.705Z,997.3
2016-05-11T15:55:17.877Z,997.4
2016-05-11T15:55:27.877Z,997.4
2016-05-11T15:55:37.721Z,997.3
2016-05-11T15:55:47.908Z,997.3
2016-05-11T15:55:57.908Z,997.3
2016-05-11T15:56:07.896Z,997.3
2016-05-11T15:56:17.911Z,997.3
2016-05-11T15:56:27.911Z,997.3
2016-05-11T15:56:37.911Z,997.3
2016-05-11T15:56:47.989Z,997.3
2016-05-11T15:56:57.927Z,997.3
2016-05-11T15:57:07.929Z,997.4
2016-05-11T15:57:17.648Z,997.3
2016-05-11T15:57:27.976Z,997.3
2016-05-11T15:57:37.960Z,997.3